• Join FlightAware (Why Join?)
  • Login
  • US Flag 
06:15AM EDT


 

Airport Tracker/Info


-or-


 

Live Flight TrackerFlight Track Log ✈ ASQ6041 ✈ 11-Jul-2013 ✈ KDEN - KGUC

Flight Track Log - Related Links

Times and Time Zones

All times are in EDT time to prevent confusion due to time zone crossing. See the ASQ6041 flight status page for this flight to view local times or setup timezone preferences in your user account.

Time Position Orientation Groundspeed Altitude Reporting Facility
EDT Latitude Longitude Course Direction KTS MPH feet Rate Location/Type
01:52PM 39.7833 -104.6833 251° West 232 267 8,100  Level Denver TRACON
01:53PM 39.7500 -104.7667 243° Southwest 297 342 9,600 960 Climbing Denver TRACON
01:54PM 39.7500 -104.8833 270° West 348 400 10,000 1,320 Climbing Denver TRACON
01:56PM 39.7539 -105.0628 272° West 355 409 12,800 1,500 Climbing Denver Center
01:57PM 39.7111 -105.1811 245° Southwest 362 417 13,800 1,140 Climbing Denver Center
01:58PM 39.6151 -105.3978 251° West  Level FlightAware Approximate
01:58PM 39.6658 -105.3036 244° Southwest 375 432 15,200  Level Denver Center
01:59PM 39.6178 -105.4414 246° West 389 448 16,300 960 Climbing Denver Center
02:00PM 39.5692 -105.5700 244° Southwest 398 458 17,300 1,740 Climbing Denver Center
02:01PM 39.5261 -105.7031 247° West 371 427 20,000 2,520 Climbing Denver Center
02:02PM 39.4933 -105.8272 251° West 339 390 22,600 1,920 Climbing Denver Center
02:03PM 39.4642 -105.9408 252° West 335 386 24,000 660 Climbing Denver Center
02:04PM 39.4289 -106.0681 250° West 375 432 24,000  Level Denver Center
02:05PM 39.3686 -106.2078 241° Southwest 415 478 24,000 -240 Level Denver Center
02:06PM 39.2747 -106.2967 216° Southwest 435 501 23,600 -480 Descending Denver Center
02:07PM 39.1617 -106.3986 215° Southwest 442 509 23,100 -960 Descending Denver Center
02:08PM 39.0717 -106.4800 215° Southwest 421 484 21,700 -2,040 Descending Denver Center
02:09PM 38.9828 -106.5606 215° Southwest 398 458 18,900 -2,460 Descending Denver Center
02:10PM 38.8972 -106.6389 215° Southwest 386 444 16,700 -1,440 Descending Denver Center
02:11PM 38.8128 -106.7147 215° Southwest 373 429 16,000 -360 Descending Denver Center
02:12PM 38.7267 -106.7933 215° Southwest 376 433 16,000 -540 Level Denver Center
02:13PM 38.6581 -106.8550 215° Southwest 314 361 14,900 -840 Descending Denver Center
02:14PM 38.5917 -106.9261 220° Southwest 286 329 14,300 -600 Descending Denver Center